Time;durP1;ratioP1;P1;durP2;ratioP2;P2;SDS_P1;SDS_P2;PMS_P1;PMS_P2;Temp;Humidity;BMP_temperature;BMP_pressure;BME280_temperature;BME280_humidity;BME280_pressure;Samples;Min_cycle;Max_cycle;Signal;HPM_P1;HPM_P2
2023/08/04 00:01:42;;;;;;;16.02;5.90;;;24.60;99.90;;;;;;5069758;28;20043;-68
2023/08/04 00:04:46;;;;;;;16.88;5.65;;;24.60;99.90;;;;;;5064818;28;20515;-68
2023/08/04 00:07:50;;;;;;;12.45;6.22;;;24.60;99.90;;;;;;5069757;28;20055;-68
2023/08/04 00:10:55;;;;;;;8.63;5.53;;;24.50;99.90;;;;;;5070151;28;20060;-68
2023/08/04 00:13:59;;;;;;;13.82;6.18;;;24.50;99.90;;;;;;5069892;28;20060;-68
2023/08/04 00:17:03;;;;;;;11.55;5.53;;;24.50;99.90;;;;;;5069676;28;20044;-68
2023/08/04 00:20:10;;;;;;;13.35;6.10;;;24.40;99.90;;;;;;5068927;28;20056;-68
2023/08/04 00:23:14;;;;;;;20.10;6.53;;;24.50;99.90;;;;;;5065994;28;20044;-67
2023/08/04 00:26:18;;;;;;;13.55;6.07;;;24.50;99.90;;;;;;5069801;28;20043;-69
2023/08/04 00:29:22;;;;;;;8.73;5.75;;;24.50;99.90;;;;;;5057574;28;20040;-67
2023/08/04 00:32:26;;;;;;;10.15;5.47;;;24.50;99.90;;;;;;5069551;28;20040;-68
2023/08/04 00:35:31;;;;;;;12.30;6.75;;;24.50;99.90;;;;;;5069871;28;20063;-68
2023/08/04 00:38:34;;;;;;;13.32;6.15;;;24.40;99.90;;;;;;5069462;28;20044;-68
2023/08/04 00:41:38;;;;;;;16.33;6.50;;;24.40;99.90;;;;;;5057434;28;20035;-67
2023/08/04 00:44:42;;;;;;;13.38;5.88;;;24.30;99.90;;;;;;5069938;28;20047;-68
2023/08/04 00:47:46;;;;;;;12.57;6.43;;;24.30;99.90;;;;;;5069338;28;20035;-68
2023/08/04 00:50:50;;;;;;;14.82;6.05;;;24.20;99.90;;;;;;5069800;28;20048;-68
2023/08/04 00:53:54;;;;;;;14.85;7.10;;;24.20;99.90;;;;;;5057304;28;20506;-68
2023/08/04 00:57:02;;;;;;;16.17;6.63;;;24.10;99.90;;;;;;5069253;28;20047;-68
2023/08/04 01:00:07;;;;;;;12.07;6.72;;;24.10;99.90;;;;;;5056821;28;20517;-68
2023/08/04 01:03:12;;;;;;;13.05;6.20;;;24.10;99.90;;;;;;5069061;28;20107;-67
2023/08/04 01:06:28;;;;;;;13.55;5.95;;;24.00;99.90;;;;;;5069400;28;20040;-68
2023/08/04 01:09:44;;;;;;;11.93;6.43;;;24.00;99.90;;;;;;5069392;28;20052;-68
2023/08/04 01:13:04;;;;;;;13.75;6.32;;;24.00;99.90;;;;;;5056751;28;20060;-67
2023/08/04 01:16:08;;;;;;;16.75;6.90;;;24.00;99.90;;;;;;5069585;28;20415;-68
2023/08/04 01:19:13;;;;;;;12.07;6.60;;;24.00;99.90;;;;;;5069275;28;20043;-67
2023/08/04 01:22:21;;;;;;;17.10;6.97;;;24.00;99.90;;;;;;5069065;28;20047;-67
2023/08/04 01:25:34;;;;;;;10.88;6.10;;;24.10;99.90;;;;;;5069633;28;20063;-68
2023/08/04 01:28:39;;;;;;;14.90;5.90;;;24.10;99.90;;;;;;5069587;28;20491;-67
2023/08/04 01:31:43;;;;;;;17.23;7.03;;;24.10;99.90;;;;;;5069888;28;20063;-68
2023/08/04 01:34:49;;;;;;;19.10;6.22;;;24.00;99.90;;;;;;5073244;28;20044;-68
2023/08/04 01:37:54;;;;;;;13.27;5.82;;;23.90;99.90;;;;;;5060496;28;20495;-68
2023/08/04 01:40:58;;;;;;;25.85;6.15;;;23.80;99.90;;;;;;5073469;28;20047;-68
2023/08/04 01:44:01;;;;;;;14.15;4.63;;;23.70;99.90;;;;;;5060416;28;20039;-67
2023/08/04 01:47:07;;;;;;;16.02;4.78;;;23.60;99.90;;;;;;5072585;28;20055;-67
2023/08/04 01:50:12;;;;;;;15.48;4.88;;;23.60;99.90;;;;;;5072967;28;20048;-67
2023/08/04 01:53:16;;;;;;;13.63;4.53;;;23.60;99.90;;;;;;5072038;28;20399;-67
2023/08/04 01:56:20;;;;;;;13.27;5.00;;;23.50;99.90;;;;;;5072615;28;20056;-67
2023/08/04 01:59:26;;;;;;;15.13;4.38;;;23.50;99.90;;;;;;5072116;28;20047;-67
2023/08/04 02:02:30;;;;;;;16.80;4.53;;;23.50;99.90;;;;;;5072090;28;20043;-67
2023/08/04 02:05:35;;;;;;;13.70;4.95;;;23.50;99.90;;;;;;5070903;28;20411;-67
2023/08/04 02:08:40;;;;;;;21.20;4.75;;;23.40;99.90;;;;;;5072120;28;20044;-67
2023/08/04 02:11:46;;;;;;;15.00;4.43;;;23.40;99.90;;;;;;5071542;28;20039;-67
2023/08/04 02:14:51;;;;;;;20.65;5.40;;;23.50;99.90;;;;;;5072040;28;20067;-66
2023/08/04 02:17:54;;;;;;;12.38;4.30;;;23.50;99.90;;;;;;5071864;28;20043;-67
2023/08/04 02:20:59;;;;;;;14.00;4.45;;;23.50;99.90;;;;;;5071813;28;20048;-68
2023/08/04 02:24:05;;;;;;;18.83;4.97;;;23.50;99.90;;;;;;5071684;28;20039;-67
2023/08/04 02:27:09;;;;;;;15.43;5.05;;;23.50;99.90;;;;;;5072035;28;20510;-67
2023/08/04 02:30:18;;;;;;;11.90;3.83;;;23.60;99.90;;;;;;5071504;28;20055;-67
2023/08/04 02:33:22;;;;;;;10.43;4.75;;;23.60;99.90;;;;;;5071591;28;20379;-67
2023/08/04 02:36:27;;;;;;;9.27;3.95;;;23.60;99.90;;;;;;5071735;28;20055;-68
2023/08/04 02:39:35;;;;;;;9.88;3.80;;;23.60;99.90;;;;;;5071418;28;20047;-67
2023/08/04 02:42:39;;;;;;;13.15;4.07;;;23.70;99.90;;;;;;5071014;28;20051;-67
2023/08/04 02:45:51;;;;;;;13.43;3.70;;;23.60;99.90;;;;;;5071454;28;20052;-66
2023/08/04 02:48:56;;;;;;;11.40;3.35;;;23.60;99.90;;;;;;5071191;28;20526;-67
2023/08/04 02:52:00;;;;;;;10.23;2.90;;;23.60;99.90;;;;;;5070826;28;20040;-67
2023/08/04 02:55:05;;;;;;;12.07;4.32;;;23.50;99.90;;;;;;5059203;28;20047;-68
2023/08/04 02:58:09;;;;;;;12.70;3.17;;;23.40;99.90;;;;;;5071641;28;20318;-68
2023/08/04 03:01:14;;;;;;;11.85;3.47;;;23.10;99.90;;;;;;5070801;28;20055;-68
2023/08/04 03:04:17;;;;;;;9.13;3.38;;;22.80;99.90;;;;;;5071040;28;20044;-69
2023/08/04 03:07:21;;;;;;;13.30;4.07;;;22.50;99.90;;;;;;5071007;28;20039;-69
2023/08/04 03:10:26;;;;;;;8.40;2.78;;;22.40;99.90;;;;;;5070624;28;20047;-68
2023/08/04 03:13:31;;;;;;;11.50;3.50;;;22.40;99.90;;;;;;5070138;28;20063;-68
2023/08/04 03:16:35;;;;;;;10.85;3.30;;;22.40;99.90;;;;;;5070973;28;20059;-68
2023/08/04 03:19:39;;;;;;;13.57;3.30;;;22.40;99.90;;;;;;5070379;28;20047;-66
2023/08/04 03:22:43;;;;;;;14.13;3.53;;;22.50;99.90;;;;;;5070475;28;20043;-68
2023/08/04 03:25:49;;;;;;;12.35;4.25;;;22.60;99.90;;;;;;5070317;28;20051;-68
2023/08/04 03:29:11;;;;;;;35.85;4.88;;;22.70;99.90;;;;;;5070271;28;20032;-66
2023/08/04 03:32:15;;;;;;;16.63;3.88;;;22.60;99.90;;;;;;5070037;28;20502;-67
2023/08/04 03:35:20;;;;;;;15.38;3.50;;;22.50;99.90;;;;;;5070608;28;20395;-66
2023/08/04 03:38:24;;;;;;;10.50;2.92;;;22.20;99.90;;;;;;5070378;28;20047;-67
2023/08/04 03:58:58;;;;;;;8.85;3.05;;;21.20;99.90;;;;;;5070794;28;20059;-67
2023/08/04 04:02:02;;;;;;;12.43;3.25;;;21.00;99.90;;;;;;5056747;28;20052;-66
2023/08/04 04:05:25;;;;;;;14.57;3.78;;;20.70;99.90;;;;;;5069989;28;20059;-67
2023/08/04 04:50:57;;;;;;;12.35;2.47;;;20.20;99.90;;;;;;5069789;28;20388;-67
2023/08/04 04:54:01;;;;;;;14.80;2.80;;;20.30;99.90;;;;;;5069551;28;20043;-66
2023/08/04 04:57:07;;;;;;;10.18;2.80;;;20.30;99.90;;;;;;5057708;28;20059;-66
2023/08/04 05:00:11;;;;;;;16.92;3.53;;;20.40;99.90;;;;;;5057642;28;20039;-67
2023/08/04 05:03:15;;;;;;;8.15;2.20;;;20.40;99.90;;;;;;5069221;28;20502;-66
2023/08/04 05:06:19;;;;;;;9.30;2.50;;;20.50;99.90;;;;;;5067139;28;20039;-66
2023/08/04 05:09:24;;;;;;;12.13;2.30;;;20.60;99.90;;;;;;5073467;28;20044;-67
2023/08/04 05:12:28;;;;;;;14.38;2.53;;;20.60;99.90;;;;;;5073245;28;20044;-66
2023/08/04 05:15:32;;;;;;;15.20;2.60;;;20.70;99.90;;;;;;5078106;28;20047;-66
2023/08/04 05:18:37;;;;;;;11.55;2.67;;;20.80;99.90;;;;;;5066956;28;20047;-65
2023/08/04 05:21:43;;;;;;;14.40;2.42;;;20.90;99.90;;;;;;5053138;28;20407;-67
2023/08/04 05:24:47;;;;;;;8.75;2.25;;;20.90;99.90;;;;;;5054124;28;20052;-66
2023/08/04 05:27:51;;;;;;;11.77;3.03;;;21.00;99.90;;;;;;5053559;28;20048;-67
2023/08/04 05:31:00;;;;;;;10.18;2.80;;;20.90;99.90;;;;;;5053429;28;20055;-67
2023/08/04 05:34:05;;;;;;;11.35;2.97;;;20.30;99.90;;;;;;5053295;28;20073;-67
2023/08/04 05:37:10;;;;;;;9.68;3.03;;;20.40;99.90;;;;;;5053192;28;20076;-67
2023/08/04 05:40:14;;;;;;;12.63;2.63;;;20.60;99.90;;;;;;5052978;28;20503;-67
2023/08/04 05:43:19;;;;;;;11.57;3.10;;;20.80;99.90;;;;;;5052971;28;20044;-66
2023/08/04 05:46:24;;;;;;;10.18;2.42;;;21.00;99.90;;;;;;5056601;28;20039;-67
2023/08/04 05:49:30;;;;;;;15.43;2.85;;;21.30;99.90;;;;;;5056453;28;20609;-67
2023/08/04 05:52:36;;;;;;;11.43;3.22;;;21.40;99.90;;;;;;5072108;28;20043;-67
2023/08/04 05:55:40;;;;;;;9.10;2.53;;;21.20;99.90;;;;;;5072718;28;20040;-67
2023/08/04 05:58:44;;;;;;;10.82;2.95;;;21.10;99.90;;;;;;5066223;28;20051;-69
2023/08/04 06:01:53;;;;;;;10.98;2.78;;;21.10;99.90;;;;;;5072272;28;20497;-67
2023/08/04 06:04:57;;;;;;;9.40;2.90;;;21.20;99.90;;;;;;5072386;28;20036;-67
2023/08/04 06:08:01;;;;;;;15.02;3.85;;;21.30;99.90;;;;;;5072466;28;20374;-67
2023/08/04 06:11:05;;;;;;;10.90;2.80;;;21.30;99.90;;;;;;5072565;28;20407;-65
2023/08/04 06:14:09;;;;;;;15.10;4.05;;;21.30;99.90;;;;;;5072287;28;20071;-65
2023/08/04 06:17:14;;;;;;;15.05;3.30;;;21.10;99.90;;;;;;5072196;28;20495;-66
2023/08/04 06:20:19;;;;;;;12.55;3.05;;;21.20;99.90;;;;;;5073617;28;20043;-66
2023/08/04 06:23:24;;;;;;;13.27;2.83;;;21.20;99.90;;;;;;5055460;28;20047;-67
2023/08/04 06:26:29;;;;;;;18.73;3.35;;;21.30;99.90;;;;;;5063868;28;20040;-66
2023/08/04 06:29:36;;;;;;;20.15;4.03;;;21.10;99.90;;;;;;5072028;28;20523;-69
2023/08/04 06:32:42;;;;;;;10.75;2.40;;;20.90;99.90;;;;;;5056981;28;20032;-68
2023/08/04 07:04:46;;;;;;;9.98;2.38;;;16.70;99.90;;;;;;5063697;28;20403;-68
2023/08/04 07:08:09;;;;;;;15.20;3.63;;;16.60;99.90;;;;;;5062849;28;20040;-69
2023/08/04 07:11:17;;;;;;;11.93;2.47;;;16.60;99.90;;;;;;5067100;28;20119;-68
2023/08/04 07:14:42;;;;;;;8.60;2.15;;;16.50;99.90;;;;;;5064870;28;20040;-68
2023/08/04 07:17:46;;;;;;;18.17;3.22;;;16.60;99.90;;;;;;5051353;28;20511;-68
2023/08/04 07:20:51;;;;;;;9.80;1.92;;;16.60;99.90;;;;;;5061582;28;20059;-68
2023/08/04 07:27:20;;;;;;;6.57;2.22;;;16.70;99.90;;;;;;5060199;28;20039;-70
2023/08/04 07:30:24;;;;;;;10.23;1.90;;;16.60;99.90;;;;;;5050461;28;20044;-70
2023/08/04 07:34:07;;;;;;;13.82;2.30;;;16.60;99.90;;;;;;5065954;28;20039;-69
2023/08/04 07:37:32;;;;;;;10.75;2.22;;;16.70;99.90;;;;;;5055005;28;20044;-69
2023/08/04 07:40:38;;;;;;;;;;;16.70;99.90;;;;;;5052752;28;20064;-69
2023/08/04 07:43:42;;;;;;;8.55;2.20;;;16.80;99.90;;;;;;5068260;28;19963;-69
2023/08/04 07:46:46;;;;;;;9.85;2.10;;;16.80;99.90;;;;;;5068540;28;20048;-70
2023/08/04 07:49:50;;;;;;;18.67;2.15;;;17.00;99.90;;;;;;5068875;28;20439;-69
2023/08/04 07:52:55;;;;;;;9.95;2.55;;;17.20;99.90;;;;;;5056284;28;20043;-69
2023/08/04 07:55:59;;;;;;;9.43;1.88;;;17.40;99.90;;;;;;5054836;28;20036;-69
2023/08/04 07:59:22;;;;;;;10.82;1.95;;;17.80;99.90;;;;;;5064044;28;20392;-69
2023/08/04 08:02:46;;;;;;;10.48;2.67;;;17.90;99.90;;;;;;5053678;28;20499;-68
2023/08/04 08:05:49;;;;;;;13.45;3.13;;;17.90;99.90;;;;;;5060514;28;20395;-68
2023/08/04 08:12:16;;;;;;;11.90;3.20;;;18.30;99.90;;;;;;5069686;28;20056;-69
2023/08/04 08:15:39;;;;;;;14.25;3.63;;;18.80;99.90;;;;;;5057803;28;20087;-69
2023/08/04 08:18:43;;;;;;;11.60;2.65;;;19.20;99.90;;;;;;5061938;28;20376;-69
2023/08/04 08:22:06;;;;;;;16.17;3.15;;;19.50;99.90;;;;;;5066756;28;20080;-69
2023/08/04 08:25:29;;;;;;;9.93;3.17;;;19.80;99.90;;;;;;5068462;28;20047;-68
2023/08/04 08:28:52;;;;;;;19.13;3.58;;;19.90;99.90;;;;;;5074081;28;20039;-68
2023/08/04 08:32:16;;;;;;;10.52;2.83;;;19.50;99.90;;;;;;5050777;28;20063;-66
2023/08/04 08:35:22;;;;;;;14.07;3.08;;;19.50;99.90;;;;;;5074904;28;20036;-69
2023/08/04 08:38:44;;;;;;;14.77;3.00;;;19.80;99.90;;;;;;5059245;28;20051;-68
2023/08/04 08:41:49;;;;;;;17.83;3.00;;;20.10;99.90;;;;;;5067484;28;20067;-68
2023/08/04 08:44:55;;;;;;;11.98;3.33;;;20.10;99.90;;;;;;5055833;28;20372;-69
2023/08/04 08:48:00;;;;;;;9.05;2.42;;;20.20;99.90;;;;;;5067511;28;20055;-68
2023/08/04 08:51:18;;;;;;;9.55;2.88;;;20.40;99.90;;;;;;5076036;28;20056;-68
2023/08/04 08:54:23;;;;;;;10.73;2.60;;;21.30;99.90;;;;;;5079194;28;20043;-67
2023/08/04 09:01:28;;;;;;;9.05;2.38;;;21.60;99.90;;;;;;5059708;28;21361;-69
2023/08/04 09:04:33;;;;;;;11.13;2.42;;;20.90;99.90;;;;;;5063653;28;20043;-68
2023/08/04 09:07:38;;;;;;;11.55;3.13;;;20.90;99.90;;;;;;5058473;28;20047;-68
2023/08/04 09:11:02;;;;;;;11.35;2.83;;;20.90;99.90;;;;;;5060368;28;20503;-68
2023/08/04 09:14:24;;;;;;;12.77;3.50;;;20.90;99.90;;;;;;5069944;28;20039;-68
2023/08/04 09:17:53;;;;;;;8.25;2.70;;;20.90;99.90;;;;;;5072571;28;20043;-68
2023/08/04 09:21:13;;;;;;;15.80;2.83;;;20.80;99.90;;;;;;5064746;28;20067;-68
2023/08/04 09:24:18;;;;;;;13.55;3.40;;;20.40;99.90;;;;;;5077171;28;20035;-68
2023/08/04 09:27:34;;;;;;;11.18;2.63;;;20.20;99.90;;;;;;5064641;28;20107;-68
2023/08/04 09:30:38;;;;;;;11.10;2.25;;;20.30;99.90;;;;;;5069431;28;20395;-68
2023/08/04 09:33:43;;;;;;;10.43;3.05;;;20.20;99.90;;;;;;5068792;28;20040;-68
2023/08/04 09:40:34;;;;;;;17.02;3.67;;;20.00;99.90;;;;;;5084181;28;20055;-68
2023/08/04 09:43:47;;;;;;;12.60;3.10;;;20.10;99.90;;;;;;5069354;28;20044;-68
2023/08/04 09:47:10;;;;;;;11.80;2.72;;;20.50;99.90;;;;;;5064991;28;20391;-68
2023/08/04 09:50:14;;;;;;;9.18;2.78;;;20.70;99.90;;;;;;5062397;28;20067;-68
2023/08/04 09:53:18;;;;;;;11.98;3.08;;;20.80;99.90;;;;;;5066994;28;20039;-69
2023/08/04 09:56:43;;;;;;;10.50;3.40;;;20.50;99.90;;;;;;5052412;28;20036;-68
2023/08/04 09:59:48;;;;;;;7.68;2.92;;;20.30;99.90;;;;;;5052147;28;20044;-68
2023/08/04 10:06:18;;;;;;;10.60;2.30;;;20.90;99.90;;;;;;5058248;28;20036;-68
2023/08/04 10:09:23;;;;;;;12.23;3.42;;;21.20;99.90;;;;;;5052443;28;20391;-68
2023/08/04 10:12:47;;;;;;;9.10;3.38;;;21.20;99.90;;;;;;5058776;28;20055;-68
2023/08/04 10:15:52;;;;;;;11.55;2.92;;;21.10;99.90;;;;;;5066565;28;20302;-69
2023/08/04 10:22:59;;;;;;;10.40;2.25;;;22.00;99.90;;;;;;5069252;28;20043;-68
2023/08/04 10:29:59;;;;;;;11.02;2.50;;;22.60;99.90;;;;;;5054440;28;20043;-67
2023/08/04 10:33:10;;;;;;;4.90;2.28;;;22.90;99.90;;;;;;5068163;28;20391;-68
2023/08/04 10:36:14;;;;;;;8.88;2.58;;;23.20;99.90;;;;;;5071128;28;20042;-69
2023/08/04 10:39:35;;;;;;;11.95;3.10;;;23.20;99.90;;;;;;5056335;28;20111;-68
2023/08/04 10:42:58;;;;;;;8.27;3.40;;;22.10;99.90;;;;;;5067866;28;20499;-67
2023/08/04 10:46:10;;;;;;;6.22;2.72;;;21.40;99.90;;;;;;5068005;28;20542;-68
2023/08/04 10:49:34;;;;;;;14.93;3.50;;;21.50;99.90;;;;;;5056104;28;20040;-68
2023/08/04 10:52:40;;;;;;;10.55;2.83;;;21.90;99.90;;;;;;5070823;28;20047;-68
2023/08/04 10:55:57;;;;;;;16.88;3.05;;;22.50;99.90;;;;;;5069629;28;20170;-67
2023/08/04 10:59:01;;;;;;;14.95;3.10;;;23.10;99.90;;;;;;5069581;28;20031;-68
2023/08/04 11:05:50;;;;;;;10.70;2.65;;;23.20;99.90;;;;;;5071792;28;20056;-68
2023/08/04 11:08:56;;;;;;;12.18;2.97;;;24.20;99.90;;;;;;5077670;28;20040;-68
2023/08/04 11:12:03;;;;;;;9.85;3.05;;;24.30;99.90;;;;;;5069211;28;20039;-68
2023/08/04 11:15:26;;;;;;;16.00;3.65;;;25.00;99.90;;;;;;5065659;28;20530;-68
2023/08/04 11:18:31;;;;;;;8.65;2.65;;;26.50;99.90;;;;;;5074454;28;20056;-68
2023/08/04 11:21:35;;;;;;;9.98;2.75;;;28.10;99.90;;;;;;5064845;28;20454;-68
2023/08/04 11:28:03;;;;;;;13.85;2.35;;;29.80;99.90;;;;;;5060798;28;20043;-68
2023/08/04 11:31:26;;;;;;;11.15;2.50;;;29.80;99.90;;;;;;5066516;28;20044;-68
2023/08/04 11:38:11;;;;;;;8.05;2.30;;;29.10;99.90;;;;;;5067486;28;20407;-68
2023/08/04 11:41:16;;;;;;;6.57;2.13;;;29.30;99.90;;;;;;5053473;28;20060;-67
2023/08/04 11:48:05;;;;;;;6.50;2.10;;;28.90;99.90;;;;;;5076563;28;20422;-69
2023/08/04 11:51:10;;;;;;;9.38;2.00;;;28.30;99.90;;;;;;5072274;28;20047;-67
2023/08/04 11:54:53;;;;;;;13.68;2.63;;;27.70;99.90;;;;;;5072678;28;20046;-67
2023/08/04 11:58:30;;;;;;;10.35;2.70;;;27.10;99.90;;;;;;5059241;28;20044;-67
2023/08/04 12:05:46;;;;;;;15.15;2.85;;;26.20;99.90;;;;;;5073406;28;20055;-67
2023/08/04 12:09:00;;;;;;;7.85;2.40;;;25.80;99.90;;;;;;5061425;28;20040;-68
2023/08/04 12:12:05;;;;;;;11.43;2.85;;;25.50;99.90;;;;;;5068272;28;20046;-68
2023/08/04 12:15:10;;;;;;;11.75;2.88;;;25.30;99.90;;;;;;5070332;28;20333;-67
2023/08/04 12:21:54;;;;;;;14.00;2.92;;;25.00;99.90;;;;;;5064617;28;20048;-68
2023/08/04 12:24:58;;;;;;;10.98;2.75;;;24.80;99.90;;;;;;5060960;28;20039;-68
2023/08/04 12:28:02;;;;;;;9.88;2.55;;;24.60;99.90;;;;;;5064393;28;20055;-68
2023/08/04 12:31:06;;;;;;;8.15;2.03;;;24.50;99.90;;;;;;5070960;28;20048;-68
2023/08/04 12:34:29;;;;;;;8.55;2.35;;;24.60;99.90;;;;;;5054798;28;20044;-68
2023/08/04 12:37:33;;;;;;;13.88;2.40;;;24.60;99.90;;;;;;5075471;28;20053;-67
2023/08/04 12:40:56;;;;;;;10.30;2.30;;;24.60;99.90;;;;;;5057030;28;20051;-67
2023/08/04 12:44:39;;;;;;;14.68;2.80;;;24.60;99.90;;;;;;5068032;28;20035;-68
2023/08/04 12:48:04;;;;;;;6.70;2.13;;;24.70;99.90;;;;;;5059130;28;20051;-68
2023/08/04 12:51:10;;;;;;;12.48;2.38;;;24.70;99.90;;;;;;5068850;28;20494;-68
2023/08/04 12:54:17;;;;;;;10.18;2.58;;;24.60;99.90;;;;;;5066789;28;20042;-68
2023/08/04 12:57:22;;;;;;;10.32;2.30;;;24.60;99.90;;;;;;5089532;28;20497;-68
2023/08/04 13:00:27;;;;;;;10.90;2.50;;;24.70;99.90;;;;;;5060281;28;20040;-68
2023/08/04 13:03:50;;;;;;;6.72;1.90;;;24.90;99.90;;;;;;5058631;28;20399;-69
2023/08/04 13:07:13;;;;;;;9.82;2.53;;;25.30;99.90;;;;;;5055746;28;20388;-68
2023/08/04 13:10:17;;;;;;;8.63;1.58;;;25.60;99.90;;;;;;5076402;28;20048;-68
2023/08/04 13:13:23;;;;;;;7.30;2.10;;;25.70;99.90;;;;;;5060939;28;20052;-68
2023/08/04 13:16:47;;;;;;;11.02;2.30;;;25.90;99.90;;;;;;5062588;28;20044;-69
2023/08/04 13:19:52;;;;;;;9.55;1.70;;;26.00;99.90;;;;;;5057092;28;20040;-68
2023/08/04 13:23:15;;;;;;;8.30;2.28;;;26.10;99.90;;;;;;5065721;28;20048;-68
2023/08/04 13:26:37;;;;;;;8.48;2.25;;;26.20;99.90;;;;;;5062746;28;20056;-68
2023/08/04 13:29:41;;;;;;;12.95;3.10;;;26.20;99.90;;;;;;5065081;28;20067;-68
2023/08/04 13:36:27;;;;;;;8.38;1.75;;;26.40;99.90;;;;;;5071704;28;20388;-69
2023/08/04 13:43:13;;;;;;;5.15;2.08;;;26.50;99.90;;;;;;5063619;28;20036;-68
2023/08/04 13:46:17;;;;;;;7.15;2.60;;;26.80;99.90;;;;;;5083495;28;20042;-68
2023/08/04 13:49:21;;;;;;;7.88;1.52;;;27.10;99.90;;;;;;5063914;28;20047;-68
2023/08/04 13:52:25;;;;;;;8.23;2.47;;;27.20;99.90;;;;;;5069334;28;20561;-68
2023/08/04 13:55:29;;;;;;;7.00;1.83;;;27.20;99.90;;;;;;5080463;28;20051;-70
2023/08/04 13:58:52;;;;;;;11.77;2.10;;;27.30;99.90;;;;;;5068179;28;20043;-69
2023/08/04 14:02:15;;;;;;;7.68;1.83;;;27.50;99.90;;;;;;5076122;28;20047;-68
2023/08/04 14:05:19;;;;;;;8.70;1.70;;;27.60;99.90;;;;;;5063802;28;20039;-68
2023/08/04 14:08:42;;;;;;;7.00;1.90;;;27.40;99.90;;;;;;5070782;28;20044;-69
2023/08/04 14:18:32;;;;;;;7.55;1.70;;;26.70;99.90;;;;;;5065110;28;20494;-68
2023/08/04 14:21:56;;;;;;;8.23;2.00;;;26.30;99.90;;;;;;5070536;28;20059;-68
2023/08/04 14:25:00;;;;;;;6.00;2.00;;;26.20;99.90;;;;;;5061501;28;20052;-68
2023/08/04 14:28:05;;;;;;;8.90;1.75;;;26.40;99.90;;;;;;5049226;28;20400;-69
2023/08/04 14:34:35;;;;;;;9.55;2.22;;;26.10;99.90;;;;;;5080427;28;20043;-69
2023/08/04 14:37:39;;;;;;;11.00;2.25;;;25.60;99.90;;;;;;5091873;28;20047;-68
2023/08/04 14:41:20;;;;;;;7.68;1.70;;;25.30;99.90;;;;;;5091626;28;20043;-68
2023/08/04 14:44:24;;;;;;;11.27;3.15;;;25.00;99.90;;;;;;5091557;28;20387;-68
2023/08/04 14:47:47;;;;;;;12.38;2.60;;;24.90;99.90;;;;;;5091734;28;20058;-68
2023/08/04 14:50:52;;;;;;;8.82;2.08;;;25.10;99.90;;;;;;5091893;28;20501;-68
2023/08/04 14:53:56;;;;;;;10.13;1.70;;;25.10;99.90;;;;;;5091660;28;20047;-68
2023/08/04 14:57:19;;;;;;;9.48;1.45;;;25.30;99.90;;;;;;5091424;28;20051;-68
2023/08/04 15:00:23;;;;;;;8.77;1.77;;;25.40;99.90;;;;;;5091722;28;20071;-68
2023/08/04 15:03:46;;;;;;;5.95;1.67;;;25.50;99.90;;;;;;5091227;28;20043;-68
2023/08/04 15:07:09;;;;;;;6.45;1.98;;;25.60;99.90;;;;;;5091281;28;20051;-68
2023/08/04 15:10:13;;;;;;;7.50;2.33;;;25.60;99.90;;;;;;5091444;28;20043;-68
2023/08/04 15:13:35;;;;;;;10.35;2.15;;;25.60;99.90;;;;;;5090595;28;20047;-68
2023/08/04 15:16:39;;;;;;;7.07;1.63;;;25.40;99.90;;;;;;5091096;28;20047;-68
2023/08/04 15:23:07;;;;;;;8.02;2.05;;;25.20;99.90;;;;;;5090647;28;20059;-68
2023/08/04 15:26:11;;;;;;;8.75;2.03;;;25.10;99.90;;;;;;5091235;28;20043;-69
2023/08/04 15:29:15;;;;;;;8.93;2.25;;;24.80;99.90;;;;;;5091122;28;20514;-68
2023/08/04 15:32:37;;;;;;;7.65;2.10;;;24.60;99.90;;;;;;5089982;28;20054;-68
2023/08/04 15:36:01;;;;;;;8.05;2.28;;;24.50;99.90;;;;;;5091053;28;20039;-68
2023/08/04 15:42:27;;;;;;;10.05;2.22;;;24.20;99.90;;;;;;5089770;28;20047;-68
2023/08/04 15:45:31;;;;;;;13.50;2.35;;;24.10;99.90;;;;;;5090788;28;20047;-68
2023/08/04 15:52:18;;;;;;;10.43;2.05;;;23.90;99.90;;;;;;5089945;28;20047;-68
2023/08/04 15:55:22;;;;;;;9.13;2.10;;;23.70;99.90;;;;;;5090716;28;20395;-69
2023/08/04 15:58:44;;;;;;;11.30;2.28;;;23.60;99.90;;;;;;5090735;28;20046;-68
2023/08/04 16:01:49;;;;;;;10.25;2.28;;;23.60;99.90;;;;;;5090063;28;20051;-68
2023/08/04 16:04:53;;;;;;;14.93;2.33;;;23.40;99.90;;;;;;5090500;28;20050;-69
2023/08/04 16:07:58;;;;;;;12.38;2.22;;;23.30;99.90;;;;;;5090303;28;20059;-68
2023/08/04 16:11:05;;;;;;;11.13;1.80;;;23.20;99.90;;;;;;5089980;28;20496;-69
2023/08/04 16:14:27;;;;;;;11.00;2.60;;;23.00;99.90;;;;;;5089990;28;20035;-68
2023/08/04 16:17:33;;;;;;;12.73;2.35;;;22.80;99.90;;;;;;5089758;28;20043;-68
2023/08/04 16:20:38;;;;;;;9.43;2.05;;;22.50;99.90;;;;;;5089943;28;20505;-68
2023/08/04 16:24:20;;;;;;;15.43;1.90;;;22.20;99.90;;;;;;5089822;28;20050;-68
2023/08/04 16:27:42;;;;;;;6.47;1.67;;;22.10;99.90;;;;;;5089931;28;20039;-68
2023/08/04 16:30:47;;;;;;;11.90;2.50;;;21.90;99.90;;;;;;5090071;28;20044;-67
2023/08/04 16:33:53;;;;;;;13.27;2.53;;;21.80;99.90;;;;;;5090020;28;20042;-68
2023/08/04 16:37:16;;;;;;;11.23;1.88;;;21.70;99.90;;;;;;5080193;28;20039;-67
2023/08/04 16:40:20;;;;;;;15.82;3.10;;;21.60;99.90;;;;;;5089926;28;20055;-67
2023/08/04 16:43:43;;;;;;;15.18;2.13;;;21.60;99.90;;;;;;5089290;28;20402;-68
2023/08/04 16:47:07;;;;;;;13.25;2.28;;;21.60;99.90;;;;;;5089800;28;20039;-68
2023/08/04 16:50:11;;;;;;;14.45;2.10;;;21.50;99.90;;;;;;5089685;28;20524;-68
2023/08/04 16:56:39;;;;;;;12.27;2.03;;;21.30;99.90;;;;;;5072664;28;20234;-68
2023/08/04 17:00:03;;;;;;;13.85;2.30;;;21.20;99.90;;;;;;5066516;28;20048;-68
2023/08/04 17:03:26;;;;;;;10.25;2.50;;;21.10;99.90;;;;;;5070877;28;20040;-67
2023/08/04 17:06:31;;;;;;;14.18;2.15;;;21.00;99.90;;;;;;5073336;28;20387;-67
2023/08/04 17:09:36;;;;;;;13.32;2.40;;;21.00;99.90;;;;;;5053365;28;20494;-68
2023/08/04 17:12:41;;;;;;;18.90;3.05;;;20.80;99.90;;;;;;5052503;28;20528;-68
2023/08/04 17:16:16;;;;;;;12.38;1.98;;;20.80;99.90;;;;;;5053076;28;20056;-68
2023/08/04 17:19:40;;;;;;;16.42;3.05;;;20.70;99.90;;;;;;5052942;28;20040;-67
2023/08/04 17:22:44;;;;;;;14.63;3.15;;;20.60;99.90;;;;;;5052670;28;20055;-68
2023/08/04 17:26:26;;;;;;;18.55;2.78;;;20.50;99.90;;;;;;5053154;28;20423;-67
2023/08/04 17:29:30;;;;;;;9.18;2.00;;;20.40;99.90;;;;;;5053017;28;20048;-68
2023/08/04 17:32:35;;;;;;;16.08;3.15;;;20.40;99.90;;;;;;5065529;28;20055;-68
2023/08/04 17:36:17;;;;;;;9.95;1.90;;;20.40;99.90;;;;;;5073301;28;20044;-68
2023/08/04 17:39:21;;;;;;;12.88;2.38;;;20.30;99.90;;;;;;5072998;28;20043;-68
2023/08/04 17:42:26;;;;;;;18.08;2.72;;;20.10;99.90;;;;;;5072288;28;20047;-68
2023/08/04 17:45:49;;;;;;;24.48;2.95;;;20.10;99.90;;;;;;5072885;28;20076;-67
2023/08/04 17:49:50;;;;;;;13.05;2.47;;;20.00;99.90;;;;;;5072067;28;20111;-67
2023/08/04 17:53:13;;;;;;;11.05;2.03;;;19.90;99.90;;;;;;5071792;28;20423;-67
2023/08/04 17:56:17;;;;;;;16.60;3.03;;;19.70;99.90;;;;;;5072826;28;20073;-68
2023/08/04 17:59:21;;;;;;;11.45;2.63;;;19.60;99.90;;;;;;5072159;28;20051;-69
2023/08/04 18:02:44;;;;;;;17.92;3.05;;;19.50;99.90;;;;;;5072143;28;20063;-69
2023/08/04 18:05:48;;;;;;;17.25;4.60;;;19.30;99.90;;;;;;5072325;28;20498;-69
2023/08/04 18:09:11;;;;;;;22.10;3.30;;;19.20;99.90;;;;;;5072352;28;20040;-69
2023/08/04 18:12:15;;;;;;;19.20;10.52;;;19.10;99.90;;;;;;5071911;28;20048;-68
2023/08/04 18:15:19;;;;;;;19.63;5.57;;;19.00;99.90;;;;;;5072144;28;20047;-69
2023/08/04 18:18:23;;;;;;;16.60;2.85;;;18.80;99.90;;;;;;5072300;28;20043;-69
2023/08/04 18:21:27;;;;;;;11.75;2.70;;;18.80;99.90;;;;;;5071993;28;20077;-69
2023/08/04 18:24:32;;;;;;;30.60;8.80;;;18.80;99.90;;;;;;5071695;28;20052;-68
2023/08/04 18:27:56;;;;;;;37.50;18.60;;;18.80;99.90;;;;;;5071760;28;20379;-68
2023/08/04 18:31:01;;;;;;;31.75;12.65;;;18.70;99.90;;;;;;5071453;28;20059;-72
2023/08/04 18:34:07;;;;;;;15.98;3.58;;;18.60;99.90;;;;;;5071414;28;20047;-69
2023/08/04 18:40:33;;;;;;;16.77;3.40;;;18.40;99.90;;;;;;5071512;28;20036;-68
2023/08/04 18:43:56;;;;;;;11.68;2.28;;;18.30;99.90;;;;;;5070800;28;20414;-70
2023/08/04 18:47:01;;;;;;;9.10;2.50;;;18.20;99.90;;;;;;5071610;28;20494;-70
2023/08/04 18:53:47;;;;;;;8.77;2.13;;;18.10;99.90;;;;;;5071045;28;20394;-70
2023/08/04 18:56:52;;;;;;;9.27;1.55;;;18.00;99.90;;;;;;5070990;28;20055;-69
2023/08/04 18:59:56;;;;;;;9.75;1.70;;;17.90;99.90;;;;;;5071056;28;20044;-68
2023/08/04 19:03:20;;;;;;;7.70;2.25;;;17.90;99.90;;;;;;5070348;28;20048;-69
2023/08/04 19:06:24;;;;;;;10.75;2.03;;;17.80;99.90;;;;;;5071224;28;20392;-69
2023/08/04 19:09:46;;;;;;;14.88;4.38;;;17.70;99.90;;;;;;5071031;28;20052;-69
2023/08/04 19:13:28;;;;;;;14.95;5.90;;;17.60;99.90;;;;;;5070003;28;20051;-70
2023/08/04 19:16:32;;;;;;;10.02;2.70;;;17.60;99.90;;;;;;5070763;28;20039;-69